sensor_id;sensor_type;location;lat;lon;timestamp;temperature;humidity
23532;DHT22;11943;52.270;20.978;2022-07-06T00:01:19;17.10;99.90
23532;DHT22;11943;52.270;20.978;2022-07-06T00:03:45;17.10;99.90
23532;DHT22;11943;52.270;20.978;2022-07-06T00:06:10;17.10;99.90
23532;DHT22;11943;52.270;20.978;2022-07-06T00:08:36;17.00;99.90
23532;DHT22;11943;52.270;20.978;2022-07-06T00:11:02;17.00;99.90
23532;DHT22;11943;52.270;20.978;2022-07-06T00:13:27;17.00;99.90
23532;DHT22;11943;52.270;20.978;2022-07-06T00:15:53;16.90;99.90
23532;DHT22;11943;52.270;20.978;2022-07-06T00:18:19;17.00;99.90
23532;DHT22;11943;52.270;20.978;2022-07-06T00:20:44;17.10;99.90
23532;DHT22;11943;52.270;20.978;2022-07-06T00:23:10;17.00;99.90
23532;DHT22;11943;52.270;20.978;2022-07-06T00:25:36;17.00;99.90
23532;DHT22;11943;52.270;20.978;2022-07-06T00:28:02;17.00;99.90
23532;DHT22;11943;52.270;20.978;2022-07-06T00:30:28;16.90;99.90
23532;DHT22;11943;52.270;20.978;2022-07-06T00:32:53;16.90;99.90
23532;DHT22;11943;52.270;20.978;2022-07-06T00:35:19;16.80;99.90
23532;DHT22;11943;52.270;20.978;2022-07-06T00:37:45;16.80;99.90
23532;DHT22;11943;52.270;20.978;2022-07-06T00:40:11;16.90;99.90
23532;DHT22;11943;52.270;20.978;2022-07-06T00:42:46;16.90;99.90
23532;DHT22;11943;52.270;20.978;2022-07-06T00:45:13;16.90;99.90
23532;DHT22;11943;52.270;20.978;2022-07-06T00:47:40;16.80;99.90
23532;DHT22;11943;52.270;20.978;2022-07-06T00:50:08;16.80;99.90
23532;DHT22;11943;52.270;20.978;2022-07-06T00:52:44;16.80;99.90
23532;DHT22;11943;52.270;20.978;2022-07-06T00:55:10;16.80;99.90
23532;DHT22;11943;52.270;20.978;2022-07-06T00:57:37;16.80;99.90
23532;DHT22;11943;52.270;20.978;2022-07-06T01:00:04;16.70;99.90
23532;DHT22;11943;52.270;20.978;2022-07-06T01:02:34;16.70;99.90
23532;DHT22;11943;52.270;20.978;2022-07-06T01:05:00;16.70;99.90
23532;DHT22;11943;52.270;20.978;2022-07-06T01:07:26;16.60;99.90
23532;DHT22;11943;52.270;20.978;2022-07-06T01:09:53;16.70;99.90
23532;DHT22;11943;52.270;20.978;2022-07-06T01:12:18;16.70;99.90
23532;DHT22;11943;52.270;20.978;2022-07-06T01:14:45;16.70;99.90
23532;DHT22;11943;52.270;20.978;2022-07-06T01:17:12;16.70;99.90
23532;DHT22;11943;52.270;20.978;2022-07-06T01:19:38;16.60;99.90
23532;DHT22;11943;52.270;20.978;2022-07-06T01:22:04;16.60;99.90
23532;DHT22;11943;52.270;20.978;2022-07-06T01:24:30;16.50;99.90
23532;DHT22;11943;52.270;20.978;2022-07-06T01:26:55;16.50;99.90
23532;DHT22;11943;52.270;20.978;2022-07-06T01:29:21;16.50;99.90
23532;DHT22;11943;52.270;20.978;2022-07-06T01:31:48;16.50;99.90
23532;DHT22;11943;52.270;20.978;2022-07-06T01:34:16;16.40;99.90
23532;DHT22;11943;52.270;20.978;2022-07-06T01:36:42;16.40;99.90
23532;DHT22;11943;52.270;20.978;2022-07-06T01:39:08;16.50;99.90
23532;DHT22;11943;52.270;20.978;2022-07-06T01:41:34;16.50;99.90
23532;DHT22;11943;52.270;20.978;2022-07-06T01:44:01;16.50;99.90
23532;DHT22;11943;52.270;20.978;2022-07-06T01:46:26;16.60;99.90
23532;DHT22;11943;52.270;20.978;2022-07-06T01:48:52;16.50;99.90
23532;DHT22;11943;52.270;20.978;2022-07-06T01:51:18;16.50;99.90
23532;DHT22;11943;52.270;20.978;2022-07-06T01:53:44;16.50;99.90
23532;DHT22;11943;52.270;20.978;2022-07-06T01:56:10;16.50;99.90
23532;DHT22;11943;52.270;20.978;2022-07-06T01:58:36;16.40;99.90
23532;DHT22;11943;52.270;20.978;2022-07-06T02:01:10;16.40;99.90
23532;DHT22;11943;52.270;20.978;2022-07-06T02:03:36;16.40;99.90
23532;DHT22;11943;52.270;20.978;2022-07-06T02:06:03;16.40;99.90
23532;DHT22;11943;52.270;20.978;2022-07-06T02:08:29;16.40;99.90
23532;DHT22;11943;52.270;20.978;2022-07-06T02:10:55;16.50;99.90
23532;DHT22;11943;52.270;20.978;2022-07-06T02:13:21;16.50;99.90
23532;DHT22;11943;52.270;20.978;2022-07-06T02:15:46;16.50;99.90
23532;DHT22;11943;52.270;20.978;2022-07-06T02:18:12;16.50;99.90
23532;DHT22;11943;52.270;20.978;2022-07-06T02:20:38;16.50;99.90
23532;DHT22;11943;52.270;20.978;2022-07-06T02:23:03;16.50;99.90
23532;DHT22;11943;52.270;20.978;2022-07-06T02:25:29;16.50;99.90
23532;DHT22;11943;52.270;20.978;2022-07-06T02:27:54;16.50;99.90
23532;DHT22;11943;52.270;20.978;2022-07-06T02:30:20;16.50;99.90
23532;DHT22;11943;52.270;20.978;2022-07-06T02:32:46;16.40;99.90
23532;DHT22;11943;52.270;20.978;2022-07-06T02:35:12;16.50;99.90
23532;DHT22;11943;52.270;20.978;2022-07-06T02:37:37;16.40;99.90
23532;DHT22;11943;52.270;20.978;2022-07-06T02:40:04;16.50;99.90
23532;DHT22;11943;52.270;20.978;2022-07-06T02:42:30;16.50;99.90
23532;DHT22;11943;52.270;20.978;2022-07-06T02:44:55;16.50;99.90
23532;DHT22;11943;52.270;20.978;2022-07-06T02:47:21;16.50;99.90
23532;DHT22;11943;52.270;20.978;2022-07-06T02:49:47;16.50;99.90
23532;DHT22;11943;52.270;20.978;2022-07-06T02:52:12;16.50;99.90
23532;DHT22;11943;52.270;20.978;2022-07-06T02:54:38;16.50;99.90
23532;DHT22;11943;52.270;20.978;2022-07-06T02:57:03;16.50;99.90
23532;DHT22;11943;52.270;20.978;2022-07-06T02:59:29;16.60;99.90
23532;DHT22;11943;52.270;20.978;2022-07-06T03:01:55;16.50;99.90
23532;DHT22;11943;52.270;20.978;2022-07-06T03:04:20;16.60;99.90
23532;DHT22;11943;52.270;20.978;2022-07-06T03:06:46;16.60;99.90
23532;DHT22;11943;52.270;20.978;2022-07-06T03:09:11;16.60;99.90
23532;DHT22;11943;52.270;20.978;2022-07-06T03:11:37;16.50;99.90
23532;DHT22;11943;52.270;20.978;2022-07-06T03:14:06;16.50;99.90
23532;DHT22;11943;52.270;20.978;2022-07-06T03:16:32;16.50;99.90
23532;DHT22;11943;52.270;20.978;2022-07-06T03:18:58;16.40;99.90
23532;DHT22;11943;52.270;20.978;2022-07-06T03:21:24;16.40;99.90
23532;DHT22;11943;52.270;20.978;2022-07-06T03:23:50;16.40;99.90
23532;DHT22;11943;52.270;20.978;2022-07-06T03:26:16;16.50;99.90
23532;DHT22;11943;52.270;20.978;2022-07-06T03:28:41;16.50;99.90
23532;DHT22;11943;52.270;20.978;2022-07-06T03:31:07;16.50;99.90
23532;DHT22;11943;52.270;20.978;2022-07-06T03:33:33;16.50;99.90
23532;DHT22;11943;52.270;20.978;2022-07-06T03:35:58;16.60;99.90
23532;DHT22;11943;52.270;20.978;2022-07-06T03:38:24;16.50;99.90
23532;DHT22;11943;52.270;20.978;2022-07-06T03:40:49;16.50;99.90
23532;DHT22;11943;52.270;20.978;2022-07-06T03:43:15;16.40;99.90
23532;DHT22;11943;52.270;20.978;2022-07-06T03:45:41;16.40;99.90
23532;DHT22;11943;52.270;20.978;2022-07-06T03:48:07;16.40;99.90
23532;DHT22;11943;52.270;20.978;2022-07-06T03:50:32;16.50;99.90
23532;DHT22;11943;52.270;20.978;2022-07-06T03:52:58;16.50;99.90
23532;DHT22;11943;52.270;20.978;2022-07-06T03:55:23;16.50;99.90
23532;DHT22;11943;52.270;20.978;2022-07-06T03:57:49;16.50;99.90
23532;DHT22;11943;52.270;20.978;2022-07-06T04:00:15;16.50;99.90
23532;DHT22;11943;52.270;20.978;2022-07-06T04:02:40;16.50;99.90
23532;DHT22;11943;52.270;20.978;2022-07-06T04:05:06;16.60;99.90
23532;DHT22;11943;52.270;20.978;2022-07-06T04:07:32;16.60;99.90
23532;DHT22;11943;52.270;20.978;2022-07-06T04:09:58;16.60;99.90
23532;DHT22;11943;52.270;20.978;2022-07-06T04:12:23;16.60;99.90
23532;DHT22;11943;52.270;20.978;2022-07-06T04:14:49;16.70;99.90
23532;DHT22;11943;52.270;20.978;2022-07-06T04:17:14;16.70;99.90
23532;DHT22;11943;52.270;20.978;2022-07-06T04:19:59;16.80;99.90
23532;DHT22;11943;52.270;20.978;2022-07-06T04:22:24;16.70;99.90
23532;DHT22;11943;52.270;20.978;2022-07-06T04:24:50;16.70;99.90
23532;DHT22;11943;52.270;20.978;2022-07-06T04:27:16;16.70;99.90
23532;DHT22;11943;52.270;20.978;2022-07-06T04:29:41;16.80;99.90
23532;DHT22;11943;52.270;20.978;2022-07-06T04:32:07;16.70;99.90
23532;DHT22;11943;52.270;20.978;2022-07-06T04:34:33;16.70;99.90
23532;DHT22;11943;52.270;20.978;2022-07-06T04:36:59;16.70;99.90
23532;DHT22;11943;52.270;20.978;2022-07-06T04:39:24;16.80;99.90
23532;DHT22;11943;52.270;20.978;2022-07-06T04:41:50;16.80;99.90
23532;DHT22;11943;52.270;20.978;2022-07-06T04:44:15;16.80;99.90
23532;DHT22;11943;52.270;20.978;2022-07-06T04:46:41;16.90;99.90
23532;DHT22;11943;52.270;20.978;2022-07-06T04:49:06;16.90;99.90
23532;DHT22;11943;52.270;20.978;2022-07-06T04:51:32;17.00;99.90
23532;DHT22;11943;52.270;20.978;2022-07-06T04:53:58;17.00;99.90
23532;DHT22;11943;52.270;20.978;2022-07-06T04:56:23;17.10;99.90
23532;DHT22;11943;52.270;20.978;2022-07-06T04:58:49;17.00;99.90
23532;DHT22;11943;52.270;20.978;2022-07-06T05:01:15;17.00;99.90
23532;DHT22;11943;52.270;20.978;2022-07-06T05:03:40;17.00;99.90
23532;DHT22;11943;52.270;20.978;2022-07-06T05:06:06;17.00;99.90
23532;DHT22;11943;52.270;20.978;2022-07-06T05:08:32;17.00;99.90
23532;DHT22;11943;52.270;20.978;2022-07-06T05:10:58;17.00;99.90
23532;DHT22;11943;52.270;20.978;2022-07-06T05:13:24;16.90;99.90
23532;DHT22;11943;52.270;20.978;2022-07-06T05:15:49;17.00;99.90
23532;DHT22;11943;52.270;20.978;2022-07-06T05:18:15;17.00;99.90
23532;DHT22;11943;52.270;20.978;2022-07-06T05:20:41;17.00;99.90
23532;DHT22;11943;52.270;20.978;2022-07-06T05:23:06;16.90;99.90
23532;DHT22;11943;52.270;20.978;2022-07-06T05:25:32;17.00;99.90
23532;DHT22;11943;52.270;20.978;2022-07-06T05:27:58;17.00;99.90
23532;DHT22;11943;52.270;20.978;2022-07-06T05:30:24;17.10;99.90
23532;DHT22;11943;52.270;20.978;2022-07-06T05:32:50;17.10;99.90
23532;DHT22;11943;52.270;20.978;2022-07-06T05:35:16;17.10;99.90
23532;DHT22;11943;52.270;20.978;2022-07-06T05:37:42;17.10;99.90
23532;DHT22;11943;52.270;20.978;2022-07-06T05:40:08;17.10;99.90
23532;DHT22;11943;52.270;20.978;2022-07-06T05:42:34;16.90;99.90
23532;DHT22;11943;52.270;20.978;2022-07-06T05:44:59;17.00;99.90
23532;DHT22;11943;52.270;20.978;2022-07-06T05:47:25;16.90;99.90
23532;DHT22;11943;52.270;20.978;2022-07-06T05:50:09;17.00;99.90
23532;DHT22;11943;52.270;20.978;2022-07-06T05:52:42;17.10;99.90
23532;DHT22;11943;52.270;20.978;2022-07-06T05:55:09;17.10;99.90
23532;DHT22;11943;52.270;20.978;2022-07-06T05:57:35;17.20;99.90
23532;DHT22;11943;52.270;20.978;2022-07-06T06:00:01;17.20;99.90
23532;DHT22;11943;52.270;20.978;2022-07-06T06:02:36;17.20;99.90
23532;DHT22;11943;52.270;20.978;2022-07-06T06:05:02;17.20;99.90
23532;DHT22;11943;52.270;20.978;2022-07-06T06:07:27;17.10;99.90
23532;DHT22;11943;52.270;20.978;2022-07-06T06:09:53;17.10;99.90
23532;DHT22;11943;52.270;20.978;2022-07-06T06:12:18;17.20;99.90
23532;DHT22;11943;52.270;20.978;2022-07-06T06:14:44;17.20;99.90
23532;DHT22;11943;52.270;20.978;2022-07-06T06:17:09;17.30;99.90
23532;DHT22;11943;52.270;20.978;2022-07-06T06:19:35;17.30;99.90
23532;DHT22;11943;52.270;20.978;2022-07-06T06:22:02;17.40;99.90
23532;DHT22;11943;52.270;20.978;2022-07-06T06:24:28;17.50;99.90
23532;DHT22;11943;52.270;20.978;2022-07-06T06:26:53;17.60;99.90
23532;DHT22;11943;52.270;20.978;2022-07-06T06:29:19;17.80;99.90
23532;DHT22;11943;52.270;20.978;2022-07-06T06:31:44;18.30;99.90
23532;DHT22;11943;52.270;20.978;2022-07-06T06:34:10;18.60;99.90
23532;DHT22;11943;52.270;20.978;2022-07-06T06:36:36;18.80;99.90
23532;DHT22;11943;52.270;20.978;2022-07-06T06:39:01;18.90;99.90
23532;DHT22;11943;52.270;20.978;2022-07-06T06:41:28;19.20;99.90
23532;DHT22;11943;52.270;20.978;2022-07-06T06:43:53;19.20;99.90
23532;DHT22;11943;52.270;20.978;2022-07-06T06:46:19;19.40;99.90
23532;DHT22;11943;52.270;20.978;2022-07-06T06:48:45;19.30;99.90
23532;DHT22;11943;52.270;20.978;2022-07-06T06:51:10;19.20;99.90
23532;DHT22;11943;52.270;20.978;2022-07-06T06:53:36;18.90;99.90
23532;DHT22;11943;52.270;20.978;2022-07-06T06:56:01;18.80;99.90
23532;DHT22;11943;52.270;20.978;2022-07-06T06:58:27;18.90;99.90
23532;DHT22;11943;52.270;20.978;2022-07-06T07:00:52;18.80;99.90
23532;DHT22;11943;52.270;20.978;2022-07-06T07:03:18;18.80;99.90
23532;DHT22;11943;52.270;20.978;2022-07-06T07:05:44;19.30;99.90
23532;DHT22;11943;52.270;20.978;2022-07-06T07:08:09;19.70;99.90
23532;DHT22;11943;52.270;20.978;2022-07-06T07:10:35;19.90;99.90
23532;DHT22;11943;52.270;20.978;2022-07-06T07:13:00;20.30;99.90
23532;DHT22;11943;52.270;20.978;2022-07-06T07:15:26;20.60;99.90
23532;DHT22;11943;52.270;20.978;2022-07-06T07:17:52;20.70;99.90
23532;DHT22;11943;52.270;20.978;2022-07-06T07:20:17;20.70;99.90
23532;DHT22;11943;52.270;20.978;2022-07-06T07:22:43;20.60;99.90
23532;DHT22;11943;52.270;20.978;2022-07-06T07:25:09;20.40;99.90
23532;DHT22;11943;52.270;20.978;2022-07-06T07:27:34;20.30;99.90
23532;DHT22;11943;52.270;20.978;2022-07-06T07:30:00;20.00;99.90
23532;DHT22;11943;52.270;20.978;2022-07-06T07:32:26;19.70;99.90
23532;DHT22;11943;52.270;20.978;2022-07-06T07:34:51;19.60;99.90
23532;DHT22;11943;52.270;20.978;2022-07-06T07:37:17;19.30;99.90
23532;DHT22;11943;52.270;20.978;2022-07-06T07:39:43;19.20;99.90
23532;DHT22;11943;52.270;20.978;2022-07-06T07:42:08;19.20;99.90
23532;DHT22;11943;52.270;20.978;2022-07-06T07:44:34;19.50;99.90
23532;DHT22;11943;52.270;20.978;2022-07-06T07:46:59;19.70;99.90
23532;DHT22;11943;52.270;20.978;2022-07-06T07:49:25;20.10;99.90
23532;DHT22;11943;52.270;20.978;2022-07-06T07:51:50;20.40;99.90
23532;DHT22;11943;52.270;20.978;2022-07-06T07:54:17;20.60;99.90
23532;DHT22;11943;52.270;20.978;2022-07-06T07:56:43;21.00;99.90
23532;DHT22;11943;52.270;20.978;2022-07-06T07:59:09;21.40;99.90
23532;DHT22;11943;52.270;20.978;2022-07-06T08:01:35;21.60;99.90
23532;DHT22;11943;52.270;20.978;2022-07-06T08:04:01;21.50;99.90
23532;DHT22;11943;52.270;20.978;2022-07-06T08:06:26;21.30;99.90
23532;DHT22;11943;52.270;20.978;2022-07-06T08:08:52;21.20;99.90
23532;DHT22;11943;52.270;20.978;2022-07-06T08:11:18;21.20;99.90
23532;DHT22;11943;52.270;20.978;2022-07-06T08:13:44;21.30;99.90
23532;DHT22;11943;52.270;20.978;2022-07-06T08:16:09;21.80;99.90
23532;DHT22;11943;52.270;20.978;2022-07-06T08:18:36;21.80;99.90
23532;DHT22;11943;52.270;20.978;2022-07-06T08:21:02;21.60;99.90
23532;DHT22;11943;52.270;20.978;2022-07-06T08:23:27;21.40;99.90
23532;DHT22;11943;52.270;20.978;2022-07-06T08:25:53;21.20;99.90
23532;DHT22;11943;52.270;20.978;2022-07-06T08:28:19;21.50;99.90
23532;DHT22;11943;52.270;20.978;2022-07-06T08:30:45;22.00;99.90
23532;DHT22;11943;52.270;20.978;2022-07-06T08:33:11;22.30;99.90
23532;DHT22;11943;52.270;20.978;2022-07-06T08:35:36;22.40;99.90
23532;DHT22;11943;52.270;20.978;2022-07-06T08:38:02;22.50;99.90
23532;DHT22;11943;52.270;20.978;2022-07-06T08:40:33;22.60;98.90
23532;DHT22;11943;52.270;20.978;2022-07-06T08:43:00;22.10;99.90
23532;DHT22;11943;52.270;20.978;2022-07-06T08:45:26;21.80;99.90
23532;DHT22;11943;52.270;20.978;2022-07-06T08:47:54;21.60;99.90
23532;DHT22;11943;52.270;20.978;2022-07-06T08:50:20;21.70;99.90
23532;DHT22;11943;52.270;20.978;2022-07-06T08:52:48;22.20;99.90
23532;DHT22;11943;52.270;20.978;2022-07-06T08:55:15;22.60;97.20
23532;DHT22;11943;52.270;20.978;2022-07-06T08:57:43;22.60;94.30
23532;DHT22;11943;52.270;20.978;2022-07-06T09:00:10;22.80;93.80
23532;DHT22;11943;52.270;20.978;2022-07-06T09:02:37;22.60;94.30
23532;DHT22;11943;52.270;20.978;2022-07-06T09:05:03;22.70;97.50
23532;DHT22;11943;52.270;20.978;2022-07-06T09:07:29;22.80;82.20
23532;DHT22;11943;52.270;20.978;2022-07-06T09:09:56;23.00;91.80
23532;DHT22;11943;52.270;20.978;2022-07-06T09:12:22;23.00;87.90
23532;DHT22;11943;52.270;20.978;2022-07-06T09:14:51;23.20;90.20
23532;DHT22;11943;52.270;20.978;2022-07-06T09:17:19;23.00;87.00
23532;DHT22;11943;52.270;20.978;2022-07-06T09:19:45;23.00;78.20
23532;DHT22;11943;52.270;20.978;2022-07-06T09:22:27;23.10;79.70
23532;DHT22;11943;52.270;20.978;2022-07-06T09:25:10;23.30;74.90
23532;DHT22;11943;52.270;20.978;2022-07-06T09:27:42;23.40;80.20
23532;DHT22;11943;52.270;20.978;2022-07-06T09:47:00;24.10;65.80
23532;DHT22;11943;52.270;20.978;2022-07-06T09:49:26;23.10;68.60
23532;DHT22;11943;52.270;20.978;2022-07-06T09:51:57;23.20;72.10
23532;DHT22;11943;52.270;20.978;2022-07-06T09:54:23;23.50;74.60
23532;DHT22;11943;52.270;20.978;2022-07-06T09:56:50;23.50;67.20
23532;DHT22;11943;52.270;20.978;2022-07-06T09:59:21;23.80;63.30
23532;DHT22;11943;52.270;20.978;2022-07-06T10:01:48;23.90;62.60
23532;DHT22;11943;52.270;20.978;2022-07-06T10:04:15;24.00;65.30
23532;DHT22;11943;52.270;20.978;2022-07-06T10:06:44;24.40;60.50
23532;DHT22;11943;52.270;20.978;2022-07-06T10:09:10;24.40;58.80
23532;DHT22;11943;52.270;20.978;2022-07-06T10:11:39;24.40;60.60
23532;DHT22;11943;52.270;20.978;2022-07-06T10:14:06;24.30;60.60
23532;DHT22;11943;52.270;20.978;2022-07-06T10:16:33;24.30;64.60
23532;DHT22;11943;52.270;20.978;2022-07-06T10:19:02;24.50;61.70
23532;DHT22;11943;52.270;20.978;2022-07-06T10:21:29;24.40;60.70
23532;DHT22;11943;52.270;20.978;2022-07-06T10:23:55;24.10;58.30
23532;DHT22;11943;52.270;20.978;2022-07-06T10:26:25;24.10;60.60
23532;DHT22;11943;52.270;20.978;2022-07-06T10:28:52;23.80;61.70
23532;DHT22;11943;52.270;20.978;2022-07-06T10:31:19;23.40;59.60
23532;DHT22;11943;52.270;20.978;2022-07-06T10:33:46;23.20;58.60
23532;DHT22;11943;52.270;20.978;2022-07-06T10:39:37;23.30;62.40
23532;DHT22;11943;52.270;20.978;2022-07-06T10:45:07;23.50;59.60
23532;DHT22;11943;52.270;20.978;2022-07-06T10:47:34;23.20;65.00
23532;DHT22;11943;52.270;20.978;2022-07-06T10:50:01;23.30;62.50
23532;DHT22;11943;52.270;20.978;2022-07-06T10:53:12;23.80;60.60
23532;DHT22;11943;52.270;20.978;2022-07-06T10:55:40;24.60;57.50
23532;DHT22;11943;52.270;20.978;2022-07-06T10:58:06;25.00;52.40
23532;DHT22;11943;52.270;20.978;2022-07-06T11:00:52;24.80;55.10
23532;DHT22;11943;52.270;20.978;2022-07-06T11:06:11;23.70;57.40
23532;DHT22;11943;52.270;20.978;2022-07-06T11:16:20;22.60;63.60
23532;DHT22;11943;52.270;20.978;2022-07-06T11:18:48;23.00;63.30
23532;DHT22;11943;52.270;20.978;2022-07-06T11:23:41;23.80;58.70
23532;DHT22;11943;52.270;20.978;2022-07-06T11:26:08;24.20;57.20
23532;DHT22;11943;52.270;20.978;2022-07-06T11:28:34;24.10;56.60
23532;DHT22;11943;52.270;20.978;2022-07-06T11:31:01;23.80;54.30
23532;DHT22;11943;52.270;20.978;2022-07-06T11:33:30;23.80;56.30
23532;DHT22;11943;52.270;20.978;2022-07-06T11:38:42;23.40;58.20
23532;DHT22;11943;52.270;20.978;2022-07-06T11:41:08;23.30;59.60
23532;DHT22;11943;52.270;20.978;2022-07-06T11:43:34;23.60;60.50
23532;DHT22;11943;52.270;20.978;2022-07-06T11:45:59;24.10;55.40
23532;DHT22;11943;52.270;20.978;2022-07-06T11:48:25;24.10;56.10
23532;DHT22;11943;52.270;20.978;2022-07-06T11:50:59;24.20;56.30
23532;DHT22;11943;52.270;20.978;2022-07-06T11:53:25;24.00;56.90
23532;DHT22;11943;52.270;20.978;2022-07-06T11:55:50;23.80;58.50
23532;DHT22;11943;52.270;20.978;2022-07-06T11:58:20;23.70;59.60
23532;DHT22;11943;52.270;20.978;2022-07-06T12:03:31;23.60;59.50
23532;DHT22;11943;52.270;20.978;2022-07-06T12:05:58;23.40;59.30
23532;DHT22;11943;52.270;20.978;2022-07-06T12:08:24;23.30;62.70
23532;DHT22;11943;52.270;20.978;2022-07-06T12:10:50;23.60;61.60
23532;DHT22;11943;52.270;20.978;2022-07-06T12:13:16;23.70;58.10
23532;DHT22;11943;52.270;20.978;2022-07-06T12:15:41;24.10;57.70
23532;DHT22;11943;52.270;20.978;2022-07-06T12:18:07;24.30;58.60
23532;DHT22;11943;52.270;20.978;2022-07-06T12:20:32;24.70;56.80
23532;DHT22;11943;52.270;20.978;2022-07-06T12:23:05;24.90;56.10
23532;DHT22;11943;52.270;20.978;2022-07-06T12:25:31;24.90;51.90
23532;DHT22;11943;52.270;20.978;2022-07-06T12:27:57;24.50;52.60
23532;DHT22;11943;52.270;20.978;2022-07-06T12:30:23;24.40;54.10
23532;DHT22;11943;52.270;20.978;2022-07-06T12:33:14;24.50;53.90
23532;DHT22;11943;52.270;20.978;2022-07-06T12:35:42;24.50;55.00
23532;DHT22;11943;52.270;20.978;2022-07-06T12:38:09;24.70;54.70
23532;DHT22;11943;52.270;20.978;2022-07-06T12:40:38;25.10;56.10
23532;DHT22;11943;52.270;20.978;2022-07-06T12:43:04;25.20;55.20
23532;DHT22;11943;52.270;20.978;2022-07-06T12:45:31;25.50;54.60
23532;DHT22;11943;52.270;20.978;2022-07-06T12:47:59;25.60;51.70
23532;DHT22;11943;52.270;20.978;2022-07-06T12:50:36;25.60;51.80
23532;DHT22;11943;52.270;20.978;2022-07-06T12:53:03;25.60;51.20
23532;DHT22;11943;52.270;20.978;2022-07-06T12:55:30;25.20;50.60
23532;DHT22;11943;52.270;20.978;2022-07-06T12:57:57;25.10;51.00
23532;DHT22;11943;52.270;20.978;2022-07-06T13:00:22;24.90;51.60
23532;DHT22;11943;52.270;20.978;2022-07-06T13:02:53;24.40;53.10
23532;DHT22;11943;52.270;20.978;2022-07-06T13:05:26;24.20;54.30
23532;DHT22;11943;52.270;20.978;2022-07-06T13:07:55;24.00;56.40
23532;DHT22;11943;52.270;20.978;2022-07-06T13:10:21;24.10;57.60
23532;DHT22;11943;52.270;20.978;2022-07-06T13:12:48;24.30;56.90
23532;DHT22;11943;52.270;20.978;2022-07-06T13:15:14;24.40;57.20
23532;DHT22;11943;52.270;20.978;2022-07-06T13:17:40;24.60;57.20
23532;DHT22;11943;52.270;20.978;2022-07-06T13:20:07;24.80;55.70
23532;DHT22;11943;52.270;20.978;2022-07-06T13:22:33;25.00;53.70
23532;DHT22;11943;52.270;20.978;2022-07-06T13:24:59;25.20;50.20
23532;DHT22;11943;52.270;20.978;2022-07-06T13:27:25;25.00;52.60
23532;DHT22;11943;52.270;20.978;2022-07-06T13:29:51;24.80;53.40
23532;DHT22;11943;52.270;20.978;2022-07-06T13:32:16;24.60;52.50
23532;DHT22;11943;52.270;20.978;2022-07-06T13:34:42;24.60;51.90
23532;DHT22;11943;52.270;20.978;2022-07-06T13:37:08;24.80;54.20
23532;DHT22;11943;52.270;20.978;2022-07-06T13:39:33;24.80;54.00
23532;DHT22;11943;52.270;20.978;2022-07-06T13:41:59;24.80;53.40
23532;DHT22;11943;52.270;20.978;2022-07-06T13:44:25;24.50;53.60
23532;DHT22;11943;52.270;20.978;2022-07-06T13:46:51;24.20;54.60
23532;DHT22;11943;52.270;20.978;2022-07-06T13:49:17;24.10;56.40
23532;DHT22;11943;52.270;20.978;2022-07-06T13:51:43;23.90;55.80
23532;DHT22;11943;52.270;20.978;2022-07-06T13:54:09;23.90;56.50
23532;DHT22;11943;52.270;20.978;2022-07-06T13:56:37;24.00;55.00
23532;DHT22;11943;52.270;20.978;2022-07-06T13:59:03;23.90;57.40
23532;DHT22;11943;52.270;20.978;2022-07-06T14:01:28;23.80;56.90
23532;DHT22;11943;52.270;20.978;2022-07-06T14:03:54;23.60;56.60
23532;DHT22;11943;52.270;20.978;2022-07-06T14:06:20;23.50;56.60
23532;DHT22;11943;52.270;20.978;2022-07-06T14:08:46;23.40;59.00
23532;DHT22;11943;52.270;20.978;2022-07-06T14:11:12;23.10;59.70
23532;DHT22;11943;52.270;20.978;2022-07-06T14:13:37;23.00;60.20
23532;DHT22;11943;52.270;20.978;2022-07-06T14:16:04;23.00;61.40
23532;DHT22;11943;52.270;20.978;2022-07-06T14:18:31;23.00;63.80
23532;DHT22;11943;52.270;20.978;2022-07-06T14:20:57;23.10;64.20
23532;DHT22;11943;52.270;20.978;2022-07-06T14:23:23;23.20;60.60
23532;DHT22;11943;52.270;20.978;2022-07-06T14:25:50;23.10;60.70
23532;DHT22;11943;52.270;20.978;2022-07-06T14:28:16;23.00;62.30
23532;DHT22;11943;52.270;20.978;2022-07-06T14:30:43;23.00;61.80
23532;DHT22;11943;52.270;20.978;2022-07-06T14:33:11;23.00;63.80
23532;DHT22;11943;52.270;20.978;2022-07-06T14:35:38;23.00;62.30
23532;DHT22;11943;52.270;20.978;2022-07-06T14:38:04;22.70;62.50
23532;DHT22;11943;52.270;20.978;2022-07-06T14:40:31;22.80;64.50
23532;DHT22;11943;52.270;20.978;2022-07-06T14:42:58;22.70;65.70
23532;DHT22;11943;52.270;20.978;2022-07-06T14:45:24;22.70;64.60
23532;DHT22;11943;52.270;20.978;2022-07-06T14:47:50;22.60;63.30
23532;DHT22;11943;52.270;20.978;2022-07-06T14:50:15;22.60;62.70
23532;DHT22;11943;52.270;20.978;2022-07-06T14:52:41;22.60;60.20
23532;DHT22;11943;52.270;20.978;2022-07-06T14:55:07;22.50;61.50
23532;DHT22;11943;52.270;20.978;2022-07-06T14:57:33;22.50;63.90
23532;DHT22;11943;52.270;20.978;2022-07-06T14:59:58;22.40;65.00
23532;DHT22;11943;52.270;20.978;2022-07-06T15:02:24;22.50;64.70
23532;DHT22;11943;52.270;20.978;2022-07-06T15:04:50;22.40;62.40
23532;DHT22;11943;52.270;20.978;2022-07-06T15:07:16;22.30;58.90
23532;DHT22;11943;52.270;20.978;2022-07-06T15:09:42;21.90;59.80
23532;DHT22;11943;52.270;20.978;2022-07-06T15:12:08;21.70;61.60
23532;DHT22;11943;52.270;20.978;2022-07-06T15:14:34;21.70;62.10
23532;DHT22;11943;52.270;20.978;2022-07-06T15:16:59;21.70;61.60
23532;DHT22;11943;52.270;20.978;2022-07-06T15:19:25;21.50;64.60
23532;DHT22;11943;52.270;20.978;2022-07-06T15:21:52;21.50;63.10
23532;DHT22;11943;52.270;20.978;2022-07-06T15:24:18;21.40;65.60
23532;DHT22;11943;52.270;20.978;2022-07-06T15:26:44;21.40;66.00
23532;DHT22;11943;52.270;20.978;2022-07-06T15:29:09;21.20;69.90
23532;DHT22;11943;52.270;20.978;2022-07-06T15:31:35;21.10;72.50
23532;DHT22;11943;52.270;20.978;2022-07-06T15:34:00;20.80;77.20
23532;DHT22;11943;52.270;20.978;2022-07-06T15:36:26;20.60;82.90
23532;DHT22;11943;52.270;20.978;2022-07-06T15:38:52;20.30;86.30
23532;DHT22;11943;52.270;20.978;2022-07-06T15:41:18;20.10;88.80
23532;DHT22;11943;52.270;20.978;2022-07-06T15:43:44;19.80;89.80
23532;DHT22;11943;52.270;20.978;2022-07-06T15:46:11;19.60;90.10
23532;DHT22;11943;52.270;20.978;2022-07-06T15:48:37;19.50;91.20
23532;DHT22;11943;52.270;20.978;2022-07-06T15:51:03;19.40;92.30
23532;DHT22;11943;52.270;20.978;2022-07-06T15:53:29;19.40;94.40